Terminal Aerodrome Forecast
Issued by NWS Cleveland, OH

Home | Current Version | Previous Version | Graphics & Text | Print | Product List | Glossary On
Versions: 1 2 3 4 5 6 7 8 9 10 11 12 13 14 15 16 17 18 19 20 21 22 23 24 25 26 27 28 29 30 31
000
FTUS41 KCLE 231700
TAFCLE
TAF
KCLE 231739Z 2318/2424 16010KT P6SM VCSH SCT025 OVC035
     FM232100 15014G22KT P6SM OVC025
      TEMPO 2323/2402 5SM -SHRA BKN015
     FM240200 14018G28KT 2SM -SHRA SCT008 OVC012
     FM240800 18020G30KT 5SM -SHRA BKN012 OVC025
     FM241600 18023G33KT P6SM OVC030=

USA.gov is the U.S. government's official web portal to all federal, state and local government web resources and services.